Time;durP1;ratioP1;P1;durP2;ratioP2;P2;SDS_P1;SDS_P2;PMS_P1;PMS_P2;Temp;Humidity;BMP_temperature;BMP_pressure;BME280_temperature;BME280_humidity;BME280_pressure;Samples;Min_cycle;Max_cycle;Signal;HPM_P1;HPM_P2
2022/03/15 00:02:18;;;;;;;18.92;8.68;;;8.20;99.90;;;;;;5015138;28;20088;-88
2022/03/15 00:04:43;;;;;;;16.83;8.20;;;8.10;99.90;;;;;;5004420;28;20410;-87
2022/03/15 00:07:15;;;;;;;16.73;8.27;;;;;;;;;;5011633;28;20041;-88
2022/03/15 00:09:41;;;;;;;15.88;8.10;;;;;;;;;;5012323;28;20042;-88
2022/03/15 00:12:08;;;;;;;14.73;8.43;;;8.10;99.90;;;;;;5004286;28;20029;-86
2022/03/15 00:14:37;;;;;;;16.88;8.30;;;8.10;99.90;;;;;;5009035;28;20035;-87
2022/03/15 00:17:05;;;;;;;15.68;8.07;;;10.70;99.90;;;;;;5006759;28;20045;-86
2022/03/15 00:19:31;;;;;;;14.32;8.30;;;8.40;99.90;;;;;;5006548;28;20026;-88
2022/03/15 00:21:57;;;;;;;15.10;8.38;;;8.10;99.90;;;;;;5007658;28;20042;-89
2022/03/15 00:24:23;;;;;;;12.80;8.10;;;8.10;99.90;;;;;;5009834;28;20506;-86
2022/03/15 00:26:49;;;;;;;15.10;8.32;;;8.10;99.90;;;;;;4998825;28;20029;-88
2022/03/15 00:29:19;;;;;;;19.33;8.23;;;8.50;99.90;;;;;;5008684;28;20421;-87
2022/03/15 00:31:45;;;;;;;11.50;5.97;;;8.20;99.90;;;;;;5009715;28;20022;-89
2022/03/15 00:34:11;;;;;;;11.82;5.68;;;8.30;99.90;;;;;;5013894;28;20118;-86
2022/03/15 00:36:37;;;;;;;10.77;5.68;;;8.30;99.90;;;;;;5008505;28;20053;-85
2022/03/15 00:39:04;;;;;;;11.00;5.30;;;8.20;99.90;;;;;;5012234;28;20053;-87
2022/03/15 00:41:31;;;;;;;9.75;4.80;;;8.30;99.90;;;;;;5009453;28;20286;-86
2022/03/15 00:43:56;;;;;;;10.57;4.88;;;8.30;99.90;;;;;;5010553;28;20018;-88
2022/03/15 00:46:22;;;;;;;15.90;7.13;;;9.00;99.90;;;;;;5003728;28;20117;-87
2022/03/15 00:48:48;;;;;;;10.85;5.90;;;8.20;99.90;;;;;;5009385;28;20030;-88
2022/03/15 00:51:14;;;;;;;10.15;5.40;;;11.00;99.90;;;;;;5010827;28;20032;-85
2022/03/15 00:53:40;;;;;;;10.48;5.60;;;8.20;99.90;;;;;;5008585;28;20038;-87
2022/03/15 00:56:07;;;;;;;8.32;5.18;;;8.10;99.90;;;;;;5013502;28;20088;-87
2022/03/15 00:58:33;;;;;;;12.05;5.68;;;8.10;99.90;;;;;;5005761;28;20495;-86
2022/03/15 01:00:59;;;;;;;10.23;5.28;;;8.10;99.90;;;;;;5013133;28;20022;-87
2022/03/15 01:03:25;;;;;;;10.82;5.10;;;8.10;99.90;;;;;;5010730;28;20025;-87
2022/03/15 01:05:51;;;;;;;10.45;5.13;;;8.10;99.90;;;;;;5012309;28;20018;-86
2022/03/15 01:08:17;;;;;;;9.75;4.93;;;;;;;;;;5007782;28;20022;-87
2022/03/15 01:10:44;;;;;;;9.02;4.55;;;9.60;99.90;;;;;;5004771;28;20030;-87
2022/03/15 01:13:11;;;;;;;11.43;5.05;;;8.10;99.90;;;;;;5011888;28;20943;-87
2022/03/15 01:15:42;;;;;;;10.05;5.00;;;8.20;99.90;;;;;;5015883;28;20044;-87
2022/03/15 01:18:09;;;;;;;8.65;4.45;;;8.20;99.90;;;;;;5006167;28;20048;-88
2022/03/15 01:20:37;;;;;;;7.90;4.43;;;8.70;99.90;;;;;;5013273;28;20034;-84
2022/03/15 01:23:04;;;;;;;6.85;4.05;;;;;;;;;;5023412;28;20010;-85
2022/03/15 01:25:30;;;;;;;8.48;4.25;;;8.20;99.90;;;;;;5023656;28;20026;-86
2022/03/15 01:27:56;;;;;;;10.15;5.78;;;10.20;99.90;;;;;;5029863;28;20034;-85
2022/03/15 01:30:23;;;;;;;12.10;5.32;;;8.30;99.90;;;;;;5030833;28;20014;-87
2022/03/15 01:32:48;;;;;;;9.32;4.60;;;8.30;99.90;;;;;;5022107;28;20080;-87
2022/03/15 01:35:15;;;;;;;9.30;3.97;;;8.30;99.90;;;;;;5014953;28;20022;-86
2022/03/15 01:37:40;;;;;;;6.38;3.90;;;8.30;99.90;;;;;;5008560;28;20053;-89
2022/03/15 01:40:07;;;;;;;7.15;3.72;;;8.30;99.90;;;;;;5011623;28;20117;-86
2022/03/15 01:42:32;;;;;;;5.85;3.53;;;8.30;99.90;;;;;;5002578;28;20057;-86
2022/03/15 01:45:03;;;;;;;9.68;4.55;;;8.60;99.90;;;;;;5009417;28;20060;-84
2022/03/15 01:47:28;;;;;;;9.65;4.47;;;8.20;99.90;;;;;;5008208;28;20161;-86
2022/03/15 01:49:54;;;;;;;9.80;4.53;;;8.30;99.90;;;;;;5010763;28;20483;-85
2022/03/15 01:52:20;;;;;;;9.60;4.35;;;8.30;99.90;;;;;;5009380;28;20490;-85
2022/03/15 01:54:46;;;;;;;8.77;4.15;;;8.70;99.90;;;;;;5013388;28;20029;-86
2022/03/15 01:57:12;;;;;;;9.20;4.32;;;8.70;99.90;;;;;;5013037;28;20525;-84
2022/03/15 01:59:39;;;;;;;8.02;3.83;;;8.30;99.90;;;;;;5014276;28;20095;-84
2022/03/15 02:02:05;;;;;;;7.05;3.75;;;8.30;99.90;;;;;;5017201;28;20113;-84
2022/03/15 02:04:32;;;;;;;10.27;4.10;;;8.30;99.90;;;;;;5018809;28;20180;-86
2022/03/15 02:07:06;;;;;;;9.98;3.65;;;8.30;99.90;;;;;;5015758;28;20030;-87
2022/03/15 02:09:31;;;;;;;8.48;3.72;;;8.30;99.90;;;;;;5008926;28;20038;-85
2022/03/15 02:11:58;;;;;;;6.18;3.50;;;8.40;99.90;;;;;;5012641;28;20026;-87
2022/03/15 02:14:24;;;;;;;8.57;3.75;;;8.80;99.90;;;;;;5007762;28;20045;-86
2022/03/15 02:16:50;;;;;;;6.38;3.47;;;8.40;99.90;;;;;;5012566;28;20121;-84
2022/03/15 02:19:16;;;;;;;5.72;2.92;;;8.40;99.90;;;;;;5017257;28;20022;-87
2022/03/15 02:21:41;;;;;;;6.18;3.42;;;8.40;99.90;;;;;;5015770;28;20033;-87
2022/03/15 02:24:07;;;;;;;7.05;3.60;;;8.40;99.90;;;;;;5016458;28;20017;-85
2022/03/15 02:26:33;;;;;;;9.02;3.53;;;8.30;99.90;;;;;;5022619;28;20030;-88
2022/03/15 02:28:58;;;;;;;8.18;3.50;;;8.60;99.90;;;;;;5016032;28;20093;-89
2022/03/15 02:31:31;;;;;;;7.90;3.72;;;8.40;99.90;;;;;;5010284;28;20557;-87
2022/03/15 02:33:56;;;;;;;11.27;4.57;;;8.30;99.90;;;;;;5009150;28;20034;-87
2022/03/15 02:36:22;;;;;;;6.38;3.92;;;8.40;99.90;;;;;;5006104;28;20024;-86
2022/03/15 02:38:48;;;;;;;9.32;4.05;;;9.50;99.90;;;;;;5015697;28;20049;-89
2022/03/15 02:41:14;;;;;;;9.40;4.32;;;8.50;99.90;;;;;;5009715;28;20167;-88
2022/03/15 02:43:41;;;;;;;9.07;3.75;;;8.40;99.90;;;;;;5011822;28;20102;-88
2022/03/15 02:46:07;;;;;;;9.20;3.53;;;8.40;99.90;;;;;;5006707;28;20018;-88
2022/03/15 02:48:34;;;;;;;8.85;3.20;;;8.40;99.90;;;;;;5006082;28;20029;-85
2022/03/15 02:51:06;;;;;;;6.90;3.40;;;9.20;99.90;;;;;;5016637;28;20026;-89
2022/03/15 02:53:32;;;;;;;7.32;3.13;;;8.40;99.90;;;;;;5014544;28;20113;-88
2022/03/15 02:55:58;;;;;;;6.18;3.00;;;;;;;;;;5019085;28;20269;-85
2022/03/15 02:58:24;;;;;;;6.40;2.97;;;8.40;99.90;;;;;;5017831;28;20026;-82
2022/03/15 03:00:50;;;;;;;6.95;3.22;;;7.60;99.90;;;;;;5016984;28;20030;-86
2022/03/15 03:03:15;;;;;;;4.20;2.42;;;8.30;99.90;;;;;;5020952;28;20042;-87
2022/03/15 03:05:42;;;;;;;6.90;3.15;;;;;;;;;;5021375;28;20023;-83
2022/03/15 03:08:08;;;;;;;6.55;2.88;;;8.40;99.90;;;;;;5016040;28;20125;-87
2022/03/15 03:10:34;;;;;;;6.20;2.75;;;8.40;99.90;;;;;;5021413;28;20046;-81
2022/03/15 03:13:03;;;;;;;7.38;3.10;;;8.40;99.90;;;;;;5017939;28;20064;-87
2022/03/15 03:15:32;;;;;;;6.45;3.00;;;8.50;99.90;;;;;;5014244;28;20466;-85
2022/03/15 03:17:57;;;;;;;7.57;3.22;;;8.40;99.90;;;;;;5016335;28;20555;-83
2022/03/15 03:20:26;;;;;;;5.35;2.70;;;9.10;99.90;;;;;;5014338;28;20060;-84
2022/03/15 03:22:53;;;;;;;6.28;2.92;;;8.60;99.90;;;;;;5009675;28;20057;-85
2022/03/15 03:25:19;;;;;;;9.52;3.00;;;8.30;99.90;;;;;;5010398;28;20031;-85
2022/03/15 03:27:46;;;;;;;9.35;3.25;;;8.30;99.90;;;;;;5013637;28;20040;-84
2022/03/15 03:30:13;;;;;;;7.30;3.50;;;10.90;99.90;;;;;;5006287;28;20076;-86
2022/03/15 03:32:39;;;;;;;7.25;3.58;;;8.30;99.90;;;;;;5017813;28;20026;-86
2022/03/15 03:35:05;;;;;;;6.72;3.13;;;8.30;99.90;;;;;;5015194;28;20034;-86
2022/03/15 03:37:32;;;;;;;5.97;2.88;;;8.30;99.90;;;;;;5009278;28;20037;-85
2022/03/15 03:39:58;;;;;;;7.22;3.42;;;7.90;99.90;;;;;;5015100;28;20057;-84
2022/03/15 03:42:24;;;;;;;9.00;3.30;;;9.40;99.90;;;;;;5011127;28;20093;-87
2022/03/15 03:44:50;;;;;;;9.43;3.78;;;8.40;99.90;;;;;;5008838;28;20067;-85
2022/03/15 03:47:17;;;;;;;9.45;3.63;;;8.40;99.90;;;;;;5011708;28;20022;-85
2022/03/15 03:49:43;;;;;;;10.73;3.75;;;8.40;99.90;;;;;;5016242;28;20038;-84
2022/03/15 03:52:09;;;;;;;9.85;3.50;;;8.40;99.90;;;;;;5010308;28;20033;-86
2022/03/15 03:54:35;;;;;;;8.02;4.00;;;8.40;99.90;;;;;;5007403;28;20026;-85
2022/03/15 03:57:00;;;;;;;7.95;3.70;;;8.30;99.90;;;;;;5016249;28;20033;-86
2022/03/15 03:59:27;;;;;;;7.38;3.60;;;8.30;99.90;;;;;;5012738;28;20029;-85
2022/03/15 04:01:53;;;;;;;7.88;3.72;;;8.40;99.90;;;;;;5012623;28;20026;-83
2022/03/15 04:04:19;;;;;;;7.80;3.55;;;8.00;99.90;;;;;;5014454;28;20490;-84
2022/03/15 04:06:45;;;;;;;7.65;3.70;;;;;;;;;;5004685;28;20098;-87
2022/03/15 04:09:11;;;;;;;8.20;3.65;;;8.20;99.90;;;;;;5014856;28;20093;-89
2022/03/15 04:11:41;;;;;;;8.95;4.15;;;8.20;99.90;;;;;;5014697;28;20131;-87
2022/03/15 04:14:09;;;;;;;8.90;3.77;;;8.20;99.90;;;;;;5010235;28;20030;-85
2022/03/15 04:16:34;;;;;;;6.65;3.47;;;8.20;99.90;;;;;;5016082;28;20356;-86
2022/03/15 04:19:00;;;;;;;7.15;3.80;;;8.20;99.90;;;;;;5020353;28;20049;-88
2022/03/15 04:21:26;;;;;;;6.72;3.70;;;8.20;99.90;;;;;;5016189;28;20064;-86
2022/03/15 04:23:54;;;;;;;7.60;3.78;;;8.30;99.90;;;;;;5002767;28;20057;-85
2022/03/15 04:26:20;;;;;;;8.80;4.28;;;8.40;99.90;;;;;;5005683;28;20498;-86
2022/03/15 04:28:46;;;;;;;7.13;3.78;;;8.20;99.90;;;;;;5005238;28;20030;-87
2022/03/15 04:31:13;;;;;;;11.20;4.50;;;8.20;99.90;;;;;;5013476;28;20072;-87
2022/03/15 04:33:39;;;;;;;10.85;5.95;;;8.50;99.90;;;;;;5008974;28;20057;-88
2022/03/15 04:36:05;;;;;;;9.15;4.43;;;8.20;99.90;;;;;;5008133;28;20085;-86
2022/03/15 04:38:31;;;;;;;9.65;4.57;;;;;;;;;;5011992;28;20057;-88
2022/03/15 04:40:58;;;;;;;8.25;4.90;;;8.10;99.90;;;;;;5023545;28;20029;-87
2022/03/15 04:43:24;;;;;;;11.35;5.00;;;8.10;99.90;;;;;;5009064;28;20406;-87
2022/03/15 04:45:50;;;;;;;11.15;5.13;;;8.00;99.90;;;;;;5008683;28;20040;-87
2022/03/15 04:48:20;;;;;;;11.43;4.40;;;8.10;99.90;;;;;;5009616;28;20026;-87
2022/03/15 04:50:46;;;;;;;9.82;4.05;;;8.10;99.90;;;;;;5007426;28;20479;-86
2022/03/15 04:53:12;;;;;;;11.00;3.85;;;9.80;99.90;;;;;;5009471;28;20060;-86
2022/03/15 04:55:39;;;;;;;10.40;4.20;;;;;;;;;;5002387;28;20559;-88
2022/03/15 04:58:04;;;;;;;9.90;4.53;;;8.00;99.90;;;;;;5009748;28;20511;-86
2022/03/15 05:00:30;;;;;;;5.45;3.38;;;9.30;99.90;;;;;;5007297;28;20038;-86
2022/03/15 05:02:56;;;;;;;9.75;4.47;;;8.10;99.90;;;;;;5009304;28;20026;-87
2022/03/15 05:05:21;;;;;;;8.95;4.38;;;8.10;99.90;;;;;;5032784;28;20029;-85
2022/03/15 05:07:48;;;;;;;8.68;3.75;;;8.10;99.90;;;;;;5026084;28;20018;-88
2022/03/15 05:12:58;;;;;;;10.05;4.15;;;7.90;99.90;;;;;;5027333;28;20037;-86
2022/03/15 05:15:23;;;;;;;8.30;4.00;;;8.30;99.90;;;;;;5024106;28;20064;-84
2022/03/15 05:17:49;;;;;;;8.43;4.22;;;8.30;99.90;;;;;;5012644;28;20066;-84
2022/03/15 05:20:17;;;;;;;11.15;4.50;;;;;;;;;;5006721;28;20033;-87
2022/03/15 05:22:44;;;;;;;9.98;4.43;;;7.90;99.90;;;;;;5008857;28;20066;-85
2022/03/15 05:25:13;;;;;;;7.78;3.78;;;7.90;99.90;;;;;;5009017;28;20230;-86
2022/03/15 05:27:40;;;;;;;9.10;4.00;;;7.80;99.90;;;;;;5009681;28;20064;-88
2022/03/15 05:30:09;;;;;;;11.13;4.03;;;7.80;99.90;;;;;;5010987;28;20030;-86
2022/03/15 05:32:35;;;;;;;9.98;4.13;;;7.80;99.90;;;;;;5006019;28;20053;-88
2022/03/15 05:35:02;;;;;;;8.25;3.83;;;7.80;99.90;;;;;;5006231;28;20026;-83
2022/03/15 05:37:28;;;;;;;7.38;3.55;;;7.80;99.90;;;;;;5008492;28;20070;-84
2022/03/15 05:39:54;;;;;;;8.82;3.80;;;7.90;99.90;;;;;;5004366;28;20037;-88
2022/03/15 05:42:20;;;;;;;9.77;4.00;;;7.80;99.90;;;;;;5002658;28;20522;-87
2022/03/15 05:44:47;;;;;;;8.07;4.30;;;7.80;99.90;;;;;;5017063;28;20465;-87
2022/03/15 05:47:15;;;;;;;8.65;4.05;;;7.80;99.90;;;;;;5009164;28;20030;-86
2022/03/15 05:49:42;;;;;;;8.63;5.20;;;8.00;99.90;;;;;;5011006;28;20048;-88
2022/03/15 05:52:08;;;;;;;10.18;4.43;;;7.80;99.90;;;;;;5012353;28;20108;-85
2022/03/15 05:54:34;;;;;;;7.35;4.07;;;7.80;99.90;;;;;;5010261;28;20049;-83
2022/03/15 05:57:00;;;;;;;9.45;4.28;;;7.80;99.90;;;;;;5015196;28;20547;-88
2022/03/15 05:59:25;;;;;;;7.72;4.25;;;7.80;99.90;;;;;;5009073;28;20041;-84
2022/03/15 06:01:51;;;;;;;10.75;4.93;;;8.00;99.90;;;;;;5002231;28;20026;-84
2022/03/15 06:04:17;;;;;;;12.05;4.68;;;;;;;;;;5002740;28;20543;-85
2022/03/15 06:06:43;;;;;;;11.60;5.18;;;7.90;99.90;;;;;;5009911;28;20410;-87
2022/03/15 06:09:09;;;;;;;13.27;4.65;;;7.80;99.90;;;;;;5010759;28;20027;-85
2022/03/15 06:11:38;;;;;;;10.10;5.05;;;8.10;99.90;;;;;;5004778;28;20068;-81
2022/03/15 06:14:04;;;;;;;11.00;5.30;;;7.90;99.90;;;;;;5003438;28;20044;-86
2022/03/15 06:16:29;;;;;;;11.10;4.78;;;7.90;99.90;;;;;;5002689;28;20030;-88
2022/03/15 06:18:55;;;;;;;10.73;4.63;;;8.00;99.90;;;;;;5007431;28;20038;-85
2022/03/15 06:21:21;;;;;;;11.60;4.85;;;;;;;;;;5007319;28;20504;-85
2022/03/15 06:23:50;;;;;;;10.45;5.22;;;7.90;99.90;;;;;;5006353;28;20021;-87
2022/03/15 06:26:18;;;;;;;10.93;4.75;;;7.90;99.90;;;;;;5003123;28;20041;-82
2022/03/15 06:28:44;;;;;;;11.50;5.60;;;7.90;99.90;;;;;;5015174;28;20030;-82
2022/03/15 06:31:10;;;;;;;8.02;4.47;;;8.50;99.90;;;;;;5011227;28;20098;-87
2022/03/15 06:33:36;;;;;;;8.35;4.80;;;;;;;;;;5026955;28;20053;-84
2022/03/15 06:36:03;;;;;;;10.15;4.72;;;8.00;99.90;;;;;;5020046;28;20029;-85
2022/03/15 06:38:29;;;;;;;10.75;4.53;;;8.00;99.90;;;;;;5007440;28;20116;-88
2022/03/15 06:40:56;;;;;;;12.05;5.90;;;;;;;;;;5020978;28;20027;-81
2022/03/15 06:43:22;;;;;;;13.68;5.43;;;8.00;99.90;;;;;;5011530;28;20855;-79
2022/03/15 06:45:48;;;;;;;10.50;4.50;;;9.30;99.90;;;;;;5012079;28;20026;-90
2022/03/15 06:48:15;;;;;;;10.77;4.70;;;8.00;99.90;;;;;;5019745;28;20105;-86
2022/03/15 06:50:41;;;;;;;8.27;4.00;;;7.90;99.90;;;;;;5019250;28;20439;-86
2022/03/15 06:53:07;;;;;;;10.07;4.10;;;8.00;99.90;;;;;;5021369;28;20033;-87
2022/03/15 06:55:33;;;;;;;8.13;4.20;;;8.00;99.90;;;;;;5009101;28;20467;-86
2022/03/15 06:58:00;;;;;;;7.30;4.35;;;8.00;99.90;;;;;;5014717;28;20032;-84
2022/03/15 07:00:26;;;;;;;9.27;4.72;;;8.00;99.90;;;;;;5001235;28;20027;-86
2022/03/15 07:02:52;;;;;;;7.35;4.22;;;;;;;;;;5019960;28;20093;-86
2022/03/15 07:05:18;;;;;;;10.27;4.80;;;8.20;99.90;;;;;;5019108;28;20056;-87
2022/03/15 07:07:44;;;;;;;10.35;4.60;;;8.10;99.90;;;;;;5019143;28;20037;-86
2022/03/15 07:10:11;;;;;;;7.05;4.57;;;;;;;;;;5019718;28;20026;-87
2022/03/15 07:12:40;;;;;;;15.07;6.32;;;8.40;99.90;;;;;;5019599;28;20025;-84
2022/03/15 07:15:06;;;;;;;9.38;4.55;;;8.20;99.90;;;;;;5018896;28;20022;-85
2022/03/15 07:17:32;;;;;;;7.25;4.30;;;8.10;99.90;;;;;;5003463;28;20498;-84
2022/03/15 07:20:01;;;;;;;14.40;5.25;;;8.20;99.90;;;;;;5015846;28;20022;-84
2022/03/15 07:22:28;;;;;;;11.23;5.00;;;8.10;99.90;;;;;;5017078;28;20042;-88
2022/03/15 07:24:54;;;;;;;9.90;4.40;;;8.30;99.90;;;;;;5021002;28;20076;-87
2022/03/15 07:27:21;;;;;;;14.07;5.32;;;;;;;;;;5021499;28;20053;-85
2022/03/15 07:29:47;;;;;;;11.00;5.07;;;8.20;99.90;;;;;;5019278;28;20034;-85
2022/03/15 07:32:13;;;;;;;10.10;5.00;;;;;;;;;;5021549;28;20026;-88
2022/03/15 07:34:42;;;;;;;11.05;4.75;;;;;;;;;;5019534;28;20030;-86
2022/03/15 07:37:07;;;;;;;11.23;5.35;;;8.20;99.90;;;;;;5015595;28;20026;-84
2022/03/15 07:39:34;;;;;;;10.55;5.60;;;;;;;;;;5011508;28;20026;-88
2022/03/15 07:42:00;;;;;;;11.55;6.13;;;8.30;99.90;;;;;;5012846;28;20089;-85
2022/03/15 07:44:26;;;;;;;10.30;5.93;;;8.20;99.90;;;;;;5012183;28;20022;-86
2022/03/15 07:46:52;;;;;;;12.63;6.00;;;;;;;;;;5019597;28;20045;-88
2022/03/15 07:49:18;;;;;;;9.10;5.85;;;8.10;99.90;;;;;;5018405;28;20022;-86
2022/03/15 07:51:48;;;;;;;10.13;6.05;;;8.20;99.90;;;;;;5005318;28;20022;-89
2022/03/15 07:54:14;;;;;;;12.52;6.55;;;;;;;;;;5012012;28;20036;-86
2022/03/15 07:56:41;;;;;;;9.73;6.32;;;9.00;99.90;;;;;;5018681;28;20100;-86
2022/03/15 07:59:07;;;;;;;8.80;6.45;;;8.20;99.90;;;;;;5019362;28;20026;-87
2022/03/15 08:01:34;;;;;;;13.27;6.95;;;;;;;;;;5018334;28;20040;-87
2022/03/15 08:04:00;;;;;;;12.80;7.13;;;8.20;99.90;;;;;;5017296;28;20030;-88
2022/03/15 08:06:26;;;;;;;12.93;7.40;;;8.10;99.90;;;;;;5016881;28;20041;-87
2022/03/15 08:08:57;;;;;;;13.48;7.45;;;;;;;;;;5001594;28;20030;-86
2022/03/15 08:11:26;;;;;;;14.75;7.30;;;8.30;99.90;;;;;;5010189;28;20026;-85
2022/03/15 08:13:53;;;;;;;12.82;6.47;;;9.30;99.90;;;;;;5018597;28;20100;-85
2022/03/15 08:16:21;;;;;;;13.27;6.38;;;8.20;99.90;;;;;;5017790;28;20034;-85
2022/03/15 08:18:49;;;;;;;17.77;8.55;;;8.20;99.90;;;;;;5017882;28;20076;-86
2022/03/15 08:21:16;;;;;;;9.40;6.60;;;8.20;99.90;;;;;;5017673;28;20025;-86
2022/03/15 08:23:42;;;;;;;11.98;6.75;;;8.10;99.90;;;;;;5017554;28;20021;-88
2022/03/15 08:26:11;;;;;;;14.30;6.65;;;8.10;99.90;;;;;;5018310;28;20046;-84
2022/03/15 08:28:37;;;;;;;10.82;7.10;;;8.10;99.90;;;;;;5019026;28;20018;-84
2022/03/15 08:31:03;;;;;;;13.75;7.03;;;8.10;99.90;;;;;;5018464;28;20029;-85
2022/03/15 08:33:29;;;;;;;13.15;6.88;;;;;;;;;;5018250;28;20036;-85
2022/03/15 08:35:55;;;;;;;13.35;7.13;;;8.10;99.90;;;;;;5016888;28;20026;-87
2022/03/15 08:38:21;;;;;;;13.82;7.88;;;8.10;99.90;;;;;;5014386;28;20031;-87
2022/03/15 08:40:49;;;;;;;11.90;7.45;;;8.10;99.90;;;;;;4998609;28;20038;-84
2022/03/15 08:43:15;;;;;;;13.43;7.80;;;8.00;99.90;;;;;;4998119;28;20160;-85
2022/03/15 08:45:40;;;;;;;12.48;8.48;;;8.00;99.90;;;;;;4999024;28;20073;-83
2022/03/15 08:48:07;;;;;;;12.18;7.30;;;8.00;99.90;;;;;;4998566;28;20030;-81
2022/03/15 08:50:33;;;;;;;14.82;6.47;;;8.10;99.90;;;;;;4997819;28;20030;-83
2022/03/15 08:52:59;;;;;;;14.57;7.03;;;;;;;;;;5010225;28;20029;-84
2022/03/15 08:55:29;;;;;;;13.15;7.13;;;;;;;;;;5014376;28;20053;-82
2022/03/15 08:57:55;;;;;;;11.55;7.13;;;;;;;;;;5015269;28;20036;-83
2022/03/15 09:00:22;;;;;;;16.35;7.00;;;;;;;;;;5008669;28;20027;-84
2022/03/15 09:02:48;;;;;;;14.60;6.70;;;;;;;;;;5018171;28;20049;-83
2022/03/15 09:05:18;;;;;;;14.10;7.25;;;8.00;99.90;;;;;;5019829;28;20494;-84
2022/03/15 09:07:53;;;;;;;10.10;6.40;;;7.90;99.90;;;;;;5002280;28;20080;-82
2022/03/15 09:10:23;;;;;;;14.38;5.90;;;8.00;99.90;;;;;;4999566;28;20035;-85
2022/03/15 09:12:51;;;;;;;13.30;6.40;;;8.00;99.90;;;;;;5015073;28;20029;-82
2022/03/15 09:15:17;;;;;;;14.43;6.20;;;8.00;99.90;;;;;;4999415;28;20026;-85
2022/03/15 09:17:43;;;;;;;13.05;6.88;;;8.00;99.90;;;;;;5001152;28;20037;-84
2022/03/15 09:20:10;;;;;;;13.57;6.88;;;8.20;99.90;;;;;;5021174;28;20022;-83
2022/03/15 09:22:35;;;;;;;13.10;7.63;;;8.20;99.90;;;;;;5019273;28;20053;-87
2022/03/15 09:25:03;;;;;;;12.63;7.45;;;8.10;99.90;;;;;;5017741;28;20093;-86
2022/03/15 09:27:29;;;;;;;14.00;7.97;;;8.10;99.90;;;;;;5018114;28;20479;-81
2022/03/15 09:29:55;;;;;;;14.13;7.05;;;;;;;;;;5003944;28;20037;-85
2022/03/15 09:32:22;;;;;;;14.50;7.95;;;8.10;99.90;;;;;;5011426;28;20430;-85
2022/03/15 09:34:47;;;;;;;14.32;6.57;;;9.50;99.90;;;;;;5009125;28;20054;-85
2022/03/15 09:37:13;;;;;;;10.18;6.93;;;8.10;99.90;;;;;;5005411;28;20061;-85
2022/03/15 09:39:39;;;;;;;13.80;7.32;;;8.20;99.90;;;;;;5008053;28;20030;-87
2022/03/15 09:42:06;;;;;;;14.93;8.30;;;;;;;;;;5030141;23;20066;-87
2022/03/15 09:44:35;;;;;;;15.30;8.38;;;;;;;;;;5026772;28;20061;-88
2022/03/15 09:47:03;;;;;;;12.20;8.23;;;8.10;99.90;;;;;;5023519;28;20019;-89
2022/03/15 09:49:33;;;;;;;16.80;7.72;;;;;;;;;;5026646;28;20181;-87
2022/03/15 09:52:00;;;;;;;12.95;8.32;;;8.20;99.90;;;;;;5011665;28;20026;-89
2022/03/15 09:54:26;;;;;;;10.80;7.72;;;;;;;;;;5033867;28;20125;-85
2022/03/15 09:56:53;;;;;;;13.68;8.05;;;;;;;;;;5025164;28;20483;-88
2022/03/15 09:59:21;;;;;;;10.77;7.75;;;8.20;99.90;;;;;;5056695;22;20109;-87
2022/03/15 10:01:52;;;;;;;13.02;7.90;;;8.20;99.90;;;;;;5031070;28;20025;-89
2022/03/15 10:04:19;;;;;;;10.73;6.55;;;8.30;99.90;;;;;;5028474;28;20030;-89
2022/03/15 10:06:45;;;;;;;16.67;7.80;;;;;;;;;;5033637;28;20040;-87
2022/03/15 10:09:11;;;;;;;12.73;6.65;;;;;;;;;;5023529;28;20022;-90
2022/03/15 10:11:41;;;;;;;11.55;6.07;;;;;;;;;;5028254;28;20060;-87
2022/03/15 10:14:58;;;;;;;13.30;6.18;;;8.40;99.90;;;;;;5031871;28;20018;-86
2022/03/15 10:17:27;;;;;;;10.23;5.18;;;8.50;99.90;;;;;;5023554;28;20418;-87
2022/03/15 10:20:28;;;;;;;8.50;4.53;;;8.50;99.90;;;;;;5033136;28;20057;-88
2022/03/15 10:23:05;;;;;;;6.97;4.35;;;8.40;99.90;;;;;;5027238;28;20018;-85
2022/03/15 10:26:00;;;;;;;7.43;4.38;;;8.50;99.90;;;;;;4997410;28;20065;-85
2022/03/15 10:28:28;;;;;;;9.10;4.20;;;;;;;;;;5021786;28;20128;-83
2022/03/15 10:31:52;;;;;;;;;;;;;;;;;;;;;
2022/03/15 10:34:29;;;;;;;9.68;4.72;;;8.70;99.90;;;;;;5029614;28;20073;-84
2022/03/15 10:36:56;;;;;;;11.90;4.57;;;8.70;99.90;;;;;;5028752;28;20046;-84
2022/03/15 10:39:28;;;;;;;11.70;4.40;;;8.70;99.90;;;;;;5022617;28;20030;-87
2022/03/15 10:42:05;;;;;;;9.85;5.55;;;8.90;99.90;;;;;;5018133;28;20065;-86
2022/03/15 10:44:36;;;;;;;11.07;4.28;;;9.10;99.90;;;;;;5023613;28;20011;-84
2022/03/15 10:47:17;;;;;;;10.68;4.40;;;8.60;99.90;;;;;;5047482;28;20014;-85
2022/03/15 10:50:04;;;;;;;8.15;4.50;;;8.70;99.90;;;;;;5042515;28;20030;-84
2022/03/15 10:52:45;;;;;;;11.27;4.40;;;8.60;99.90;;;;;;5028695;28;20061;-84
2022/03/15 10:55:17;;;;;;;7.47;3.97;;;8.70;99.90;;;;;;5019813;28;20042;-85
2022/03/15 10:57:57;;;;;;;11.15;4.53;;;8.70;99.90;;;;;;5030049;28;20090;-83
2022/03/15 11:01:02;;;;;;;7.60;3.78;;;8.80;99.90;;;;;;5036787;28;20026;-88
2022/03/15 11:03:33;;;;;;;9.68;4.30;;;8.90;99.90;;;;;;5028989;28;20110;-85
2022/03/15 11:06:04;;;;;;;10.45;4.10;;;;;;;;;;5044183;28;20026;-85
2022/03/15 11:08:32;;;;;;;8.98;3.92;;;;;;;;;;5023976;28;20035;-85
2022/03/15 11:11:02;;;;;;;8.82;3.90;;;9.00;99.90;;;;;;5035866;28;20032;-88
2022/03/15 11:13:37;;;;;;;11.83;3.97;;;9.00;99.90;;;;;;5030054;28;20038;-86
2022/03/15 11:16:07;;;;;;;12.88;4.25;;;9.00;99.90;;;;;;5025394;28;20277;-83
2022/03/15 11:18:38;;;;;;;9.97;4.40;;;9.00;99.90;;;;;;5018727;28;20511;-88
2022/03/15 11:21:09;;;;;;;7.55;3.92;;;9.00;99.90;;;;;;5013358;28;20270;-85
2022/03/15 11:23:46;;;;;;;9.13;4.00;;;9.00;99.90;;;;;;5024449;28;20045;-87
2022/03/15 11:26:17;;;;;;;9.52;5.68;;;9.10;99.90;;;;;;5026709;28;20038;-87
2022/03/15 11:29:02;;;;;;;8.15;5.78;;;9.20;99.90;;;;;;5021892;28;20045;-83
2022/03/15 11:36:32;;;;;;;9.27;5.90;;;9.20;99.90;;;;;;5048110;28;20477;-83
2022/03/15 11:39:02;;;;;;;12.88;6.47;;;9.20;99.90;;;;;;5007040;28;20033;-85
2022/03/15 11:41:29;;;;;;;10.40;6.25;;;;;;;;;;5041848;28;20042;-83
2022/03/15 11:44:12;;;;;;;11.48;6.25;;;9.30;99.90;;;;;;5042160;28;20026;-84
2022/03/15 11:46:46;;;;;;;8.82;6.20;;;9.30;99.90;;;;;;5023595;28;20028;-85
2022/03/15 11:49:43;;;;;;;9.60;5.65;;;9.50;99.90;;;;;;5024561;28;20089;-87
2022/03/15 11:52:34;;;;;;;10.13;6.35;;;9.50;99.90;;;;;;5044574;28;20013;-87
2022/03/15 11:55:21;;;;;;;8.55;6.20;;;9.50;99.90;;;;;;5044549;28;20033;-82
2022/03/15 11:57:51;;;;;;;9.93;6.50;;;;;;;;;;5043163;28;20070;-86
2022/03/15 12:00:38;;;;;;;8.63;5.63;;;9.50;99.90;;;;;;5043839;28;20115;-85
2022/03/15 12:03:07;;;;;;;9.25;5.63;;;;;;;;;;5061197;28;20074;-84
2022/03/15 12:05:51;;;;;;;9.93;5.47;;;9.70;99.90;;;;;;5039052;28;20055;-82
2022/03/15 12:08:27;;;;;;;10.13;6.03;;;10.10;99.90;;;;;;5023427;28;20065;-88
2022/03/15 12:11:05;;;;;;;7.78;4.68;;;11.10;99.90;;;;;;5022353;28;20025;-86
2022/03/15 12:13:37;;;;;;;9.20;5.32;;;9.80;99.90;;;;;;5023523;28;20036;-86
2022/03/15 12:16:11;;;;;;;6.40;4.32;;;9.90;99.90;;;;;;5024246;28;20026;-83
2022/03/15 12:18:46;;;;;;;5.82;4.32;;;10.00;99.90;;;;;;5022173;28;20029;-86
2022/03/15 12:21:12;;;;;;;6.97;4.22;;;10.40;99.90;;;;;;5023370;28;20026;-88
2022/03/15 12:23:40;;;;;;;6.90;4.40;;;10.00;99.90;;;;;;5022490;28;20071;-88
2022/03/15 12:26:17;;;;;;;7.03;4.55;;;10.00;99.90;;;;;;5022482;28;20041;-85
2022/03/15 12:28:53;;;;;;;6.32;4.35;;;10.10;99.90;;;;;;5022075;28;20448;-86
2022/03/15 12:31:20;;;;;;;7.00;4.70;;;10.10;99.90;;;;;;5023552;28;20075;-84
2022/03/15 12:34:00;;;;;;;12.15;6.38;;;10.10;99.90;;;;;;5050189;28;20025;-85
2022/03/15 12:36:36;;;;;;;8.77;5.07;;;10.00;99.90;;;;;;5025059;28;20079;-84
2022/03/15 12:39:13;;;;;;;11.18;5.53;;;10.10;99.90;;;;;;5039488;28;20037;-86
2022/03/15 12:41:39;;;;;;;9.63;5.72;;;10.10;99.90;;;;;;5021598;28;20116;-84
2022/03/15 12:44:09;;;;;;;12.40;6.13;;;10.30;99.90;;;;;;5023709;28;20028;-84
2022/03/15 12:46:38;;;;;;;10.38;6.40;;;10.00;99.90;;;;;;5022403;28;20128;-88
2022/03/15 12:49:13;;;;;;;10.65;6.10;;;;;;;;;;5022345;28;20029;-85
2022/03/15 12:51:41;;;;;;;8.60;6.05;;;10.00;99.90;;;;;;5006235;28;20069;-89
2022/03/15 12:54:10;;;;;;;10.93;6.60;;;9.90;99.90;;;;;;5020785;28;20030;-87
2022/03/15 12:56:47;;;;;;;12.02;6.55;;;10.00;99.90;;;;;;5003983;28;20065;-86
2022/03/15 12:59:23;;;;;;;14.23;7.63;;;9.80;99.90;;;;;;5003302;28;20214;-85
2022/03/15 13:01:51;;;;;;;17.85;7.38;;;9.80;99.90;;;;;;5003502;28;20401;-86
2022/03/15 13:04:17;;;;;;;14.02;7.32;;;9.80;99.90;;;;;;5002638;28;20030;-84
2022/03/15 13:06:47;;;;;;;11.70;7.55;;;9.80;99.90;;;;;;5003182;28;20030;-84
2022/03/15 13:09:27;;;;;;;12.75;8.27;;;9.80;99.90;;;;;;5002567;28;20026;-87
2022/03/15 13:11:56;;;;;;;11.75;7.10;;;9.70;99.90;;;;;;5003484;28;20057;-84
2022/03/15 13:14:27;;;;;;;33.30;9.20;;;9.70;99.90;;;;;;5002708;28;20022;-85
2022/03/15 13:16:56;;;;;;;14.35;8.00;;;9.60;99.90;;;;;;5003454;28;20030;-83
2022/03/15 13:19:43;;;;;;;17.42;9.35;;;9.70;99.90;;;;;;5003589;28;20112;-84
2022/03/15 13:22:11;;;;;;;10.93;7.38;;;9.60;99.90;;;;;;5008932;28;20021;-83